Dover Air Force Base
KDOV : now visible

Airfield :











YOU CAN JOIN US ON...

 
LOGIN :

Register | Disclaimer

   EN    FR    IT 

 









Legend :    VFR   Marginal VFR   IFR   Intensive IFR   Very Intensive IFR
Visi :
Ceiling :
>= 8 km
>= 3000ft
5 to 8 km
1000 to 3000 ft
1500m to 5 km
500 to 1000 ft
800 to 1500m
200 to 500 ft
< 800m
< 200 ft
Symbols :   Thunderstorms  Fog  Heavy snow  Heavy precipitations  Wind > 20 kt






- Airport Elevation : 24 ft


KDOV - Dover Air Force Base

CURRENT METAR :
  • 200256Z AUTO 22004KT 10SM CLR 02/M05 A3013 RMK AO2 SLP206 T00151052 57010 $

EXPIRED METARs :
  • 200156Z AUTO 22003KT 10SM CLR 02/M05 A3014 RMK AO2 SLP210 T00181051 $
  • 200056Z AUTO 18008KT 10SM CLR 03/M05 A3015 RMK AO2 SLP213 T00261051 $

TAF TAF KDOV
Valid from the 20 at 00:00 until the 21 at 06:00 UTC


200000Z 2000/2106 26009KT 9999 FEW040 510053 QNH2994INS
BECMG 2011/2012 27010G15KT 4800 -SN BKN040 510053 QNH2996INS
BECMG 2014/2015 30020G30KT 9999 NSW SCT035 510053 QNH2998INS
BECMG 2018/2019 30015G25KT 9999 SCT035 510053 QNH3000INS
BECMG 2023/2100 29010G15KT 9999 SCT060 QNH3005INS TX06/2020Z TNM01/2100Z
KZDC FIR / North America



MET'MAP, your aeronautical weather chart ! - Copyright ORBIFLY December 2007 - Disclaimer

ORBIFLY MET'MAP TEAM :

Programming & Development : Alexandra Zaïnal
Concept & original design : Baudouin d'Aumeries
Assistance for programming : Marc-Olivier Méhu
Technical & hardware support : Manuel Goepfert

Contact : metmap@orbifly.com




SOURCES & CREDITS :

   NOAA       Earth
Advisory